This is the latest recevied weather packets stored in our database for station/object XQ6AK-15. If no packets are shown the sender has not sent any weather packets the latest 10 day(s).
| Time | Temp. | Humidity | Pressure | Rain* | Wind** | Luminosity | Snow |
|---|---|---|---|---|---|---|---|
| 1777567198 | 11.11° C | 99% | 1010.2 hPa | 0 mm | - | 184 W/m² | - |
| 1777566896 | 10.56° C | 98% | 1010.1 hPa | 0 mm | - | 233 W/m² | - |
| 1777566594 | 11.11° C | 95% | 1010.5 hPa | 0 mm | - | 98 W/m² | - |
| 1777566291 | 11.67° C | 92% | 1010.3 hPa | 0 mm | - | 87 W/m² | - |
| 1777565989 | 11.67° C | 93% | 1010.6 hPa | 0 mm | - | 143 W/m² | - |
| 1777565684 | 11.67° C | 93% | 1010.5 hPa | 0 mm | - | 196 W/m² | - |
| 1777565381 | 12.22° C | 91% | 1010.7 hPa | 0 mm | - | 208 W/m² | - |
| 1777565076 | 11.67° C | 92% | 1010.5 hPa | 0 mm | - | 211 W/m² | - |
| 1777564773 | 11.67° C | 92% | 1010.4 hPa | 0 mm | - | 199 W/m² | - |
| 1777564468 | 11.67° C | 91% | 1010.6 hPa | 0 mm | - | 206 W/m² | - |
| 1777564163 | 11.67° C | 91% | 1010.6 hPa | 0 mm | - | 205 W/m² | - |
| 1777563860 | 12.22° C | 89% | 1010.5 hPa | 0 mm | - | 164 W/m² | - |
| 1777563556 | 12.22° C | 89% | 1010.6 hPa | 0 mm | - | 252 W/m² | - |
| 1777563255 | 11.67° C | 90% | 1010.7 hPa | 0 mm | - | 225 W/m² | - |
| 1777562952 | 11.67° C | 89% | 1010.6 hPa | 0 mm | - | 182 W/m² | - |
| 1777562648 | 11.67° C | 90% | 1010.6 hPa | 0 mm | - | 241 W/m² | - |
| 1777562343 | 11.67° C | 91% | 1010.7 hPa | 0 mm | - | 226 W/m² | - |
| 1777562038 | 11.11° C | 92% | 1010.7 hPa | 0 mm | - | 195 W/m² | - |
| 1777561735 | 11.67° C | 90% | 1010.7 hPa | 0 mm | - | 150 W/m² | - |
| 1777561431 | 11.67° C | 92% | 1010.8 hPa | 0 mm | - | 141 W/m² | - |
| 1777561126 | 11.11° C | 92% | 1010.7 hPa | 0 mm | - | 116 W/m² | - |
| 1777560821 | 11.11° C | 93% | 1010.8 hPa | 0 mm | - | 165 W/m² | - |
| 1777560520 | 11.11° C | 94% | 1010.7 hPa | 0 mm | - | 223 W/m² | - |
| 1777560217 | 11.11° C | 95% | 1010.7 hPa | 0 mm | - | 156 W/m² | - |
| 1777559914 | 11.11° C | 96% | 1010.9 hPa | 0 mm | - | 199 W/m² | - |
* Rain latest hour (hover to see other rain measurements)
** Current wind speed in m/s (hover to see current wind gust speed)